Cairns AAF (Fort Rucker) Air Field
KOZR : rendu visible

Aérodrome :











RETROUVEZ-NOUS SUR...

 
LOGIN :

S'inscrire | Disclaimer

   EN    FR    IT 

 









Légende :    VFR   VFR Marginal   IFR   IFR Intensif   IFR Très Intensif
Visi : 
Plafond : 
>= 8 km
>= 3000ft
5 à 8 km
1000 à 3000 ft
1500m à 5 km
500 à 1000 ft
800 à 1500m
200 à 500 ft
< 800m
< 200 ft
Symboles :   Orages  Brouillard  Fortes neiges  Fortes précipitations  Vent > 20 kt






- Altitude de l'aérodrome : 301 ft


KOZR - Cairns AAF (Fort Rucker) Air Field

DERNIER METAR :
  • 121125Z AUTO 31016G23KT 8SM -RA SCT002 BKN020 OVC031 16/15 A2995 RMK AO2 CIG 002V020 SLP143

METARs EXPIRÉS :
  • 121104Z AUTO 26010KT 2SM -RA BR SCT002 SCT007 OVC029 18/17 A2993 RMK AO2 VIS 1 3/4V6 CIG 029V035 PRESRR SLP136
  • 121057Z AUTO 24009KT 4SM +RA BR FEW002 FEW007 OVC033 18/17 A2991 RMK AO2 SLP129
  • 121056Z AUTO 22007KT 6SM +RA BR FEW007 OVC035 17/16 A2991 RMK AO2 RAB30E51DZB51E52RAB52 SLP129 P0007 T01740164
  • 121030Z AUTO 20005KT 10SM -RA BKN046 OVC060 17/16 A2991 RMK AO2 RAB30 SLP129
  • 120956Z AUTO 17004KT 10SM BKN065 BKN080 OVC100 17/15 A2991 RMK AO2 SLP129 T01680153
  • 120856Z AUTO 19005KT 10SM OVC080 17/15 A2992 RMK AO2 SLP132 T01660151 57023

TAF TAF KOZR
Valide du 12 à 08h jusqu'au 13 à 14h UTC


120800Z 1208/1314 19008KT 8000 -RA OVC040 QNH2992INS
TEMPO 1212/1214 27015G30KT 6000 RA BKN006
BECMG 1214/1215 34015G20KT 9999 NSW OVC015 510034 QNH3008INS
BECMG 1218/1219 35015G20KT 9999 FEW300 510034 QNH3013INS
BECMG 1302/1303 01010G20KT 9999 SKC QNH3024INS
BECMG 1311/1312 03010KT 9999 SKC QNH3026INS TX16/1209Z TNM02/1306Z



MET'MAP, la Météo Aéronautique d'un coup d'oeil ! - Copyright ORBIFLY Décembre 2007 - Disclaimer

ORBIFLY MET'MAP TEAM :

Programmation & Développement : Alexandra Zaïnal
Conception & Développement : Baudouin d'Aumeries
Co-Programmation & Développement : Marc-Olivier Méhu
Soutien technique & logistique : Manuel Goepfert

Contact : metmap@orbifly.com




SOURCES & CREDITS :

   NOAA       Earth
Advisory